Veroniki III — SY6044 — position and weather

sailwx.info

Track history (hours):
 
Tides and Currents Weather Stations Pressure Air Temp Water Temp Dewpoint Dewpoint Depression Visibility Wind Speed Wind Dir Waves Ship Positions

Veroniki III

Last reported at 2017-Nov-19 23:31 UTC. Time now 2017-Nov-22 05:37 UTC.
Position N 37°38' E 023°45'.

Length 51 m; draft 2.8 m.

Type: Tanker. MMSI: 240388000.

Date/timePositionNaut miles runAvg speedWind from/ knotsBaromVisibWave heightAir tempDewpointWater temp
2017-Nov-19 23:31N 37°38' E 023°45'0 9.6
2017-Nov-19 23:29N 37°38' E 023°44'4 9.3
2017-Nov-19 23:00N 37°42' E 023°41'5 9.5
2017-Nov-19 22:30N 37°46' E 023°38'4 9.0
2017-Nov-19 22:00N 37°50' E 023°35'5 9.9
2017-Nov-19 21:30N 37°51' E 023°29'5 9.4
2017-Nov-19 21:00N 37°53' E 023°24'4 8.5
2017-Nov-19 20:30N 37°57' E 023°24'4 7.1
2017-Nov-19 20:00N 37°60' E 023°26'4 8.4
2017-Nov-19 19:30N 38°02' E 023°31'0 0.2
2017-Nov-19 19:01N 38°02' E 023°31'0 0.0
2017-Nov-19 18:30N 38°02' E 023°31'0 0.0
2017-Nov-19 18:01N 38°02' E 023°31'0 0.0
2017-Nov-19 17:31N 38°02' E 023°31'0 0.0
2017-Nov-19 17:00N 38°02' E 023°31'0 0.0
2017-Nov-19 16:30N 38°02' E 023°31'0 0.0
2017-Nov-19 16:00N 38°02' E 023°31'0 0.0
2017-Nov-19 15:30N 38°02' E 023°31'0 0.0
2017-Nov-19 15:00N 38°02' E 023°31'0 0.0
2017-Nov-19 14:30N 38°02' E 023°31'0 0.0
2017-Nov-19 14:00N 38°02' E 023°31'0 0.0
2017-Nov-19 13:30N 38°02' E 023°31'0 0.0
2017-Nov-19 13:00N 38°02' E 023°31'0 0.0
2017-Nov-19 12:30N 38°02' E 023°31'0 0.5
2017-Nov-19 12:00N 38°02' E 023°31'1 1.2
2017-Nov-19 11:30N 38°02' E 023°31'0 0.0
2017-Nov-19 11:00N 38°02' E 023°31'0 0.0
2017-Nov-19 10:30N 38°02' E 023°31'0 0.0
2017-Nov-19 10:00N 38°02' E 023°31'0 0.0
2017-Nov-19 09:30N 38°02' E 023°31'0 0.0
2017-Nov-19 09:01N 38°02' E 023°31'0 0.0
2017-Nov-19 08:30N 38°02' E 023°31'0 0.0
2017-Nov-19 08:00N 38°02' E 023°31'0 0.1
2017-Nov-19 07:30N 38°02' E 023°31'0 0.1
2017-Nov-19 07:01N 38°02' E 023°31'0 0.0
2017-Nov-19 06:30N 38°02' E 023°31'2 4.2
2017-Nov-19 06:01N 38°00' E 023°33'4 8.3
2017-Nov-19 05:30N 37°56' E 023°35'5 9.9
2017-Nov-19 05:00N 37°52' E 023°38'510.1
2017-Nov-19 04:30N 37°47' E 023°41'109 2.3
2017-Nov-17 05:21N 37°19' E 025°54'3 9.4
2017-Nov-17 05:00N 37°22' E 025°54'5 9.7
2017-Nov-17 04:30N 37°27' E 025°55'33 1.1
2017-Nov-15 22:56N 37°55' E 025°32'4 9.5
2017-Nov-15 22:30N 37°53' E 025°27'5 9.4
2017-Nov-15 22:00N 37°50' E 025°22'5 9.3
2017-Nov-15 21:30N 37°48' E 025°17'5 9.3
2017-Nov-15 21:00N 37°46' E 025°12'5 9.1
2017-Nov-15 20:30N 37°44' E 025°07'5 9.2
2017-Nov-15 19:58N 37°42' E 025°01'6 9.0
2017-Nov-15 19:19N 37°41' E 024°54'3 9.0
2017-Nov-15 19:00N 37°41' E 024°50'53 9.0
2017-Nov-15 13:08N 37°39' E 023°44'2 8.0
2017-Nov-15 12:55N 37°40' E 023°42'4 8.8
2017-Nov-15 12:30N 37°44' E 023°40'5 9.1
2017-Nov-15 12:00N 37°48' E 023°38'4 8.9
2017-Nov-15 11:30N 37°52' E 023°36'4 8.6
2017-Nov-15 11:00N 37°56' E 023°35'4 7.5
2017-Nov-15 10:30N 37°60' E 023°33'3 5.8
2017-Nov-15 10:00N 38°02' E 023°36'0 0.0
2017-Nov-15 09:30N 38°02' E 023°36'0 0.0
2017-Nov-15 09:00N 38°02' E 023°36'0 0.0
2017-Nov-15 08:30N 38°02' E 023°36'0 0.0
2017-Nov-15 08:00N 38°02' E 023°36'0 0.0
2017-Nov-15 07:30N 38°02' E 023°36'0 0.0
2017-Nov-15 07:00N 38°02' E 023°36'0 0.0
2017-Nov-15 06:30N 38°02' E 023°36'0 0.0
2017-Nov-15 06:00N 38°02' E 023°36'0 0.0
2017-Nov-15 05:30N 38°02' E 023°36'0 0.0
2017-Nov-15 05:00N 38°02' E 023°36'0 0.0
2017-Nov-15 04:30N 38°02' E 023°36'0 0.0
2017-Nov-15 04:00N 38°02' E 023°36'0 0.0
2017-Nov-15 03:30N 38°02' E 023°36'0 0.0
2017-Nov-15 03:00N 38°02' E 023°36'0 0.0
2017-Nov-15 02:30N 38°02' E 023°36'0 0.0
2017-Nov-15 02:00N 38°02' E 023°36'0 0.0
2017-Nov-15 01:30N 38°02' E 023°36'0 0.0
2017-Nov-15 01:00N 38°02' E 023°36'0 0.0
2017-Nov-15 00:30N 38°02' E 023°36'0 0.0
2017-Nov-15 00:00N 38°02' E 023°36'0 0.0
2017-Nov-14 23:30N 38°02' E 023°36'0 0.0
2017-Nov-14 23:00N 38°02' E 023°36'0 0.0
2017-Nov-14 22:30N 38°02' E 023°36'0 0.0
2017-Nov-14 22:00N 38°02' E 023°36'0 0.0
2017-Nov-14 21:30N 38°02' E 023°36'0 0.0
2017-Nov-14 21:00N 38°02' E 023°36'0 0.0
2017-Nov-14 20:30N 38°02' E 023°36'0 0.0
2017-Nov-14 20:00N 38°02' E 023°36'0 0.0
2017-Nov-14 19:30N 38°02' E 023°36'0 0.0
2017-Nov-14 19:00N 38°02' E 023°36'0 0.0
2017-Nov-14 18:30N 38°02' E 023°36'0 0.0
2017-Nov-14 18:00N 38°02' E 023°36'0 0.0
2017-Nov-14 17:30N 38°02' E 023°36'0 0.0
2017-Nov-14 17:00N 38°02' E 023°36'0 0.2
2017-Nov-14 16:30N 38°02' E 023°36'4 7.6
2017-Nov-14 16:00N 38°02' E 023°31'0 0.3
2017-Nov-14 15:30N 38°02' E 023°31'0 0.0
2017-Nov-14 15:00N 38°02' E 023°31'0 0.0
2017-Nov-14 14:30N 38°02' E 023°31'0 0.0
2017-Nov-14 14:00N 38°02' E 023°31'0 0.0
2017-Nov-14 13:30N 38°02' E 023°31'0 0.0
2017-Nov-14 13:00N 38°02' E 023°31'0 0.0
2017-Nov-14 12:30N 38°02' E 023°31'0 0.0
2017-Nov-14 12:00N 38°02' E 023°31'0 0.0
2017-Nov-14 11:30N 38°02' E 023°31'0 0.0
2017-Nov-14 11:00N 38°02' E 023°31'0 0.0
2017-Nov-14 10:30N 38°02' E 023°31'0 0.0
2017-Nov-14 10:00N 38°02' E 023°31'0 0.0
2017-Nov-14 09:30N 38°02' E 023°31'1 1.4
2017-Nov-14 09:00N 38°02' E 023°31'0 0.0
2017-Nov-14 08:30N 38°02' E 023°31'0 0.0
2017-Nov-14 08:00N 38°02' E 023°31'0 0.0
2017-Nov-14 07:30N 38°02' E 023°31'0 0.0
2017-Nov-14 07:00N 38°02' E 023°31'0 0.0
2017-Nov-14 06:30N 38°02' E 023°31'0 0.0
2017-Nov-14 06:00N 38°02' E 023°31'0 0.0
2017-Nov-14 05:30N 38°02' E 023°31'0 0.0
2017-Nov-14 05:01N 38°02' E 023°31'0 0.0
2017-Nov-14 04:30N 38°02' E 023°31'0 0.0
2017-Nov-14 04:00N 38°02' E 023°31'0 0.0
2017-Nov-14 03:30N 38°02' E 023°31'0 0.1
2017-Nov-14 03:00N 38°02' E 023°31'0 0.0
2017-Nov-14 02:30N 38°02' E 023°31'0 0.0
2017-Nov-14 02:00N 38°02' E 023°31'0 0.0
2017-Nov-14 01:30N 38°02' E 023°31'0 0.0
2017-Nov-14 01:00N 38°02' E 023°31'0 0.0
2017-Nov-14 00:30N 38°02' E 023°31'0 0.0
2017-Nov-14 00:00N 38°02' E 023°31'0 0.0
2017-Nov-13 23:30N 38°02' E 023°31'0 0.0
2017-Nov-13 23:00N 38°02' E 023°31'0 0.0
2017-Nov-13 22:30N 38°02' E 023°31'0 0.0
2017-Nov-13 22:00N 38°02' E 023°31'3 0.2
2017-Nov-13 02:00N 38°02' E 023°36'0 0.0
2017-Nov-13 01:30N 38°02' E 023°36'0 0.0
2017-Nov-13 01:00N 38°02' E 023°36'0 0.0
2017-Nov-13 00:30N 38°02' E 023°36'0 0.0
2017-Nov-13 00:00N 38°02' E 023°36'0 0.0
2017-Nov-12 23:30N 38°02' E 023°36'0 0.0
2017-Nov-12 23:00N 38°02' E 023°36'0 0.0
2017-Nov-12 22:30N 38°02' E 023°36'0 0.0
2017-Nov-12 22:00N 38°02' E 023°36'0 0.0
2017-Nov-12 21:30N 38°02' E 023°36'0 0.0
2017-Nov-12 21:00N 38°02' E 023°36'0 0.0
2017-Nov-12 20:30N 38°02' E 023°36'0 0.0
2017-Nov-12 20:00N 38°02' E 023°36'0 0.0
2017-Nov-12 19:30N 38°02' E 023°36'0 0.0
2017-Nov-12 19:00N 38°02' E 023°36'0 0.0
2017-Nov-12 18:30N 38°02' E 023°36'0 0.0
2017-Nov-12 18:00N 38°02' E 023°36'0 0.0
2017-Nov-12 17:30N 38°02' E 023°36'0 0.0
2017-Nov-12 17:00N 38°02' E 023°36'0 0.0
2017-Nov-12 16:30N 38°02' E 023°36'0 0.0
2017-Nov-12 16:00N 38°02' E 023°36'0 0.0
2017-Nov-12 15:30N 38°02' E 023°36'0 0.0
2017-Nov-12 15:00N 38°02' E 023°36'0 0.0
2017-Nov-12 14:31N 38°02' E 023°36'0 0.0
2017-Nov-12 14:00N 38°02' E 023°36'0 0.0
2017-Nov-12 13:30N 38°02' E 023°36'0 0.0
2017-Nov-12 13:00N 38°02' E 023°36'0 0.0
2017-Nov-12 12:30N 38°02' E 023°36'0 0.0
2017-Nov-12 12:00N 38°02' E 023°36'0 0.0
2017-Nov-12 11:30N 38°02' E 023°36'0 0.0
2017-Nov-12 11:00N 38°02' E 023°36'0 0.0
2017-Nov-12 10:30N 38°02' E 023°36'0 0.0
2017-Nov-12 10:00N 38°02' E 023°36'0 0.0
2017-Nov-12 09:31N 38°02' E 023°36'0 0.0
2017-Nov-12 09:00N 38°02' E 023°36'0 0.0
2017-Nov-12 08:30N 38°02' E 023°36'0 0.0
2017-Nov-12 08:00N 38°02' E 023°36'0 0.0
2017-Nov-12 07:30N 38°02' E 023°36'0 0.0
2017-Nov-12 07:00N 38°02' E 023°36'0 0.0
2017-Nov-12 06:30N 38°02' E 023°36'0 0.0
2017-Nov-12 06:00N 38°02' E 023°36'0 0.9
2017-Nov-12 05:30N 38°02' E 023°35'0 0.1
2017-Nov-12 05:00N 38°02' E 023°35'0 0.0
2017-Nov-12 04:30N 38°02' E 023°35'0 0.0
2017-Nov-12 04:00N 38°02' E 023°35'0 0.0
2017-Nov-12 03:30N 38°02' E 023°35'0 0.1
2017-Nov-12 03:00N 38°02' E 023°35'0 0.0
2017-Nov-12 02:30N 38°02' E 023°35'0 0.0
2017-Nov-12 02:00N 38°02' E 023°35'0 0.0
2017-Nov-12 01:30N 38°02' E 023°35'0 0.0
2017-Nov-12 01:00N 38°02' E 023°35'0 0.0
2017-Nov-12 00:30N 38°02' E 023°35'0 0.0
2017-Nov-12 00:00N 38°02' E 023°35'0 0.0
2017-Nov-11 23:30N 38°02' E 023°35'0 0.0
2017-Nov-11 23:00N 38°02' E 023°35'0 0.0
2017-Nov-11 22:30N 38°02' E 023°35'0 0.7
2017-Nov-11 22:00N 38°02' E 023°35'3 6.7
2017-Nov-11 21:30N 38°02' E 023°31'0 0.0
2017-Nov-11 21:00N 38°02' E 023°31'0 0.0
2017-Nov-11 20:30N 38°02' E 023°31'0 0.0
2017-Nov-11 20:00N 38°02' E 023°31'0 0.0
2017-Nov-11 19:30N 38°02' E 023°31'0 0.0
2017-Nov-11 19:00N 38°02' E 023°31'0 0.0
2017-Nov-11 18:30N 38°02' E 023°31'0 0.0
2017-Nov-11 18:00N 38°02' E 023°31'0 0.0
2017-Nov-11 17:30N 38°02' E 023°31'0 0.0
2017-Nov-11 17:00N 38°02' E 023°31'0 0.0
2017-Nov-11 16:30N 38°02' E 023°31'0 0.0
2017-Nov-11 16:00N 38°02' E 023°31'0 0.0
2017-Nov-11 15:30N 38°02' E 023°31'0 0.0
2017-Nov-11 15:00N 38°02' E 023°31'0 0.5
2017-Nov-11 14:30N 38°02' E 023°31'3 6.9
2017-Nov-11 14:00N 38°02' E 023°35'1 1.0
2017-Nov-11 13:30N 38°02' E 023°36'0 0.0
2017-Nov-11 13:00N 38°02' E 023°36'0 0.0
2017-Nov-11 12:30N 38°02' E 023°36'0 0.0
2017-Nov-11 12:00N 38°02' E 023°36'0 0.0
2017-Nov-11 11:30N 38°02' E 023°36'0 0.0
2017-Nov-11 11:00N 38°02' E 023°36'0 0.0
2017-Nov-11 10:30N 38°02' E 023°36'0 0.0
2017-Nov-11 10:00N 38°02' E 023°36'0 0.0
2017-Nov-11 09:30N 38°02' E 023°36'0 0.0
2017-Nov-11 09:00N 38°02' E 023°36'0 0.0
2017-Nov-11 08:30N 38°02' E 023°36'0 0.0
2017-Nov-11 08:00N 38°02' E 023°36'0 0.0
2017-Nov-11 07:30N 38°02' E 023°36'0 0.0
2017-Nov-11 07:00N 38°02' E 023°36'0 0.0
2017-Nov-11 06:30N 38°02' E 023°36'0 0.0
2017-Nov-11 06:00N 38°02' E 023°36'0 0.0
2017-Nov-11 05:30N 38°02' E 023°36'0 0.0
2017-Nov-11 05:00N 38°02' E 023°36'0 0.0
2017-Nov-11 04:30N 38°02' E 023°36'0 0.0
2017-Nov-11 04:00N 38°02' E 023°36'0 0.0
2017-Nov-11 03:30N 38°02' E 023°36'0 0.0
2017-Nov-11 03:00N 38°02' E 023°36'0 0.0
2017-Nov-11 02:30N 38°02' E 023°36'0 0.0
2017-Nov-11 02:00N 38°02' E 023°36'0 0.0
2017-Nov-11 01:30N 38°02' E 023°36'0 0.0
2017-Nov-11 01:00N 38°02' E 023°36'0 0.0
2017-Nov-11 00:30N 38°02' E 023°36'0 0.0
2017-Nov-11 00:00N 38°02' E 023°36'0 0.0
2017-Nov-10 23:30N 38°02' E 023°36'0 0.0
2017-Nov-10 23:00N 38°02' E 023°36'0 0.0
2017-Nov-10 22:30N 38°02' E 023°36'0 0.0
2017-Nov-10 22:00N 38°02' E 023°36'0 0.0
2017-Nov-10 21:30N 38°02' E 023°36'0 0.0
2017-Nov-10 21:00N 38°02' E 023°36'0 0.0
2017-Nov-10 20:30N 38°02' E 023°36'0 0.0
2017-Nov-10 20:00N 38°02' E 023°36'0 0.0
2017-Nov-10 19:30N 38°02' E 023°36'0 0.0
2017-Nov-10 19:00N 38°02' E 023°36'0 0.0
2017-Nov-10 18:30N 38°02' E 023°36'0 0.0
2017-Nov-10 18:00N 38°02' E 023°36'0 0.0
2017-Nov-10 17:30N 38°02' E 023°36'0 0.0
2017-Nov-10 17:00N 38°02' E 023°36'0 0.0
2017-Nov-10 16:30N 38°02' E 023°36'0 0.0
2017-Nov-10 16:00N 38°02' E 023°36'0 0.0
2017-Nov-10 15:30N 38°02' E 023°36'0 0.0
2017-Nov-10 15:00N 38°02' E 023°36'0 0.0
2017-Nov-10 14:30N 38°02' E 023°36'0 0.0
2017-Nov-10 14:00N 38°02' E 023°36'0 0.0
2017-Nov-10 13:30N 38°02' E 023°36'0 0.0
2017-Nov-10 13:00N 38°02' E 023°36'0 0.0
2017-Nov-10 12:30N 38°02' E 023°36'0 0.0
2017-Nov-10 12:00N 38°02' E 023°36'0 0.0
2017-Nov-10 11:30N 38°02' E 023°36'0 0.0
2017-Nov-10 11:00N 38°02' E 023°36'0 0.0
2017-Nov-10 10:30N 38°02' E 023°36'0 0.0
2017-Nov-10 10:00N 38°02' E 023°36'0 0.0
2017-Nov-10 09:30N 38°02' E 023°36'0 0.0
2017-Nov-10 09:00N 38°02' E 023°36'0 0.0
2017-Nov-10 08:30N 38°02' E 023°36'0 0.0
2017-Nov-10 08:00N 38°02' E 023°36'4 7.6
2017-Nov-10 07:30N 37°59' E 023°33'4 8.5
2017-Nov-10 07:00N 37°55' E 023°34'1 1.9
2017-Nov-10 06:30N 37°54' E 023°34'0 0.7
2017-Nov-10 06:00N 37°54' E 023°35'0 0.7
2017-Nov-10 05:30N 37°54' E 023°35'1 1.9
2017-Nov-10 05:00N 37°54' E 023°36'4 8.8
2017-Nov-10 04:30N 37°50' E 023°39'4 8.7
2017-Nov-10 04:00N 37°46' E 023°41'4 8.4
2017-Nov-10 03:30N 37°43' E 023°44'  
Track history (hours):
 
Tides and Currents Weather Stations Pressure Air Temp Water Temp Dewpoint Dewpoint Depression Visibility Wind Speed Wind Dir Waves Ship Positions

Veroniki III

Last reported at 2017-Nov-19 23:31 UTC. Time now 2017-Nov-22 05:37 UTC.
Position N 37°38' E 023°45'.

Length 51 m; draft 2.8 m.

Type: Tanker. MMSI: 240388000.

Date/timePositionNaut miles runAvg speedWind from/ knotsBaromVisibWave heightAir tempDewpointWater temp
2017-Nov-19 23:31N 37°38' E 023°45'0 9.6
2017-Nov-19 23:29N 37°38' E 023°44'4 9.3
2017-Nov-19 23:00N 37°42' E 023°41'5 9.5
2017-Nov-19 22:30N 37°46' E 023°38'4 9.0
2017-Nov-19 22:00N 37°50' E 023°35'5 9.9
2017-Nov-19 21:30N 37°51' E 023°29'5 9.4
2017-Nov-19 21:00N 37°53' E 023°24'4 8.5
2017-Nov-19 20:30N 37°57' E 023°24'4 7.1
2017-Nov-19 20:00N 37°60' E 023°26'4 8.4
2017-Nov-19 19:30N 38°02' E 023°31'0 0.2
2017-Nov-19 19:01N 38°02' E 023°31'0 0.0
2017-Nov-19 18:30N 38°02' E 023°31'0 0.0
2017-Nov-19 18:01N 38°02' E 023°31'0 0.0
2017-Nov-19 17:31N 38°02' E 023°31'0 0.0
2017-Nov-19 17:00N 38°02' E 023°31'0 0.0
2017-Nov-19 16:30N 38°02' E 023°31'0 0.0
2017-Nov-19 16:00N 38°02' E 023°31'0 0.0
2017-Nov-19 15:30N 38°02' E 023°31'0 0.0
2017-Nov-19 15:00N 38°02' E 023°31'0 0.0
2017-Nov-19 14:30N 38°02' E 023°31'0 0.0
2017-Nov-19 14:00N 38°02' E 023°31'0 0.0
2017-Nov-19 13:30N 38°02' E 023°31'0 0.0
2017-Nov-19 13:00N 38°02' E 023°31'0 0.0
2017-Nov-19 12:30N 38°02' E 023°31'0 0.5
2017-Nov-19 12:00N 38°02' E 023°31'1 1.2
2017-Nov-19 11:30N 38°02' E 023°31'0 0.0
2017-Nov-19 11:00N 38°02' E 023°31'0 0.0
2017-Nov-19 10:30N 38°02' E 023°31'0 0.0
2017-Nov-19 10:00N 38°02' E 023°31'0 0.0
2017-Nov-19 09:30N 38°02' E 023°31'0 0.0
2017-Nov-19 09:01N 38°02' E 023°31'0 0.0
2017-Nov-19 08:30N 38°02' E 023°31'0 0.0
2017-Nov-19 08:00N 38°02' E 023°31'0 0.1
2017-Nov-19 07:30N 38°02' E 023°31'0 0.1
2017-Nov-19 07:01N 38°02' E 023°31'0 0.0
2017-Nov-19 06:30N 38°02' E 023°31'2 4.2
2017-Nov-19 06:01N 38°00' E 023°33'4 8.3
2017-Nov-19 05:30N 37°56' E 023°35'5 9.9
2017-Nov-19 05:00N 37°52' E 023°38'510.1
2017-Nov-19 04:30N 37°47' E 023°41'109 2.3
2017-Nov-17 05:21N 37°19' E 025°54'3 9.4
2017-Nov-17 05:00N 37°22' E 025°54'5 9.7
2017-Nov-17 04:30N 37°27' E 025°55'33 1.1
2017-Nov-15 22:56N 37°55' E 025°32'4 9.5
2017-Nov-15 22:30N 37°53' E 025°27'5 9.4
2017-Nov-15 22:00N 37°50' E 025°22'5 9.3
2017-Nov-15 21:30N 37°48' E 025°17'5 9.3
2017-Nov-15 21:00N 37°46' E 025°12'5 9.1
2017-Nov-15 20:30N 37°44' E 025°07'5 9.2
2017-Nov-15 19:58N 37°42' E 025°01'6 9.0
2017-Nov-15 19:19N 37°41' E 024°54'3 9.0
2017-Nov-15 19:00N 37°41' E 024°50'53 9.0
2017-Nov-15 13:08N 37°39' E 023°44'2 8.0
2017-Nov-15 12:55N 37°40' E 023°42'4 8.8
2017-Nov-15 12:30N 37°44' E 023°40'5 9.1
2017-Nov-15 12:00N 37°48' E 023°38'4 8.9
2017-Nov-15 11:30N 37°52' E 023°36'4 8.6
2017-Nov-15 11:00N 37°56' E 023°35'4 7.5
2017-Nov-15 10:30N 37°60' E 023°33'3 5.8
2017-Nov-15 10:00N 38°02' E 023°36'0 0.0
2017-Nov-15 09:30N 38°02' E 023°36'0 0.0
2017-Nov-15 09:00N 38°02' E 023°36'0 0.0
2017-Nov-15 08:30N 38°02' E 023°36'0 0.0
2017-Nov-15 08:00N 38°02' E 023°36'0 0.0
2017-Nov-15 07:30N 38°02' E 023°36'0 0.0
2017-Nov-15 07:00N 38°02' E 023°36'0 0.0
2017-Nov-15 06:30N 38°02' E 023°36'0 0.0
2017-Nov-15 06:00N 38°02' E 023°36'0 0.0
2017-Nov-15 05:30N 38°02' E 023°36'0 0.0
2017-Nov-15 05:00N 38°02' E 023°36'0 0.0
2017-Nov-15 04:30N 38°02' E 023°36'0 0.0
2017-Nov-15 04:00N 38°02' E 023°36'0 0.0
2017-Nov-15 03:30N 38°02' E 023°36'0 0.0
2017-Nov-15 03:00N 38°02' E 023°36'0 0.0
2017-Nov-15 02:30N 38°02' E 023°36'0 0.0
2017-Nov-15 02:00N 38°02' E 023°36'0 0.0
2017-Nov-15 01:30N 38°02' E 023°36'0 0.0
2017-Nov-15 01:00N 38°02' E 023°36'0 0.0
2017-Nov-15 00:30N 38°02' E 023°36'0 0.0
2017-Nov-15 00:00N 38°02' E 023°36'0 0.0
2017-Nov-14 23:30N 38°02' E 023°36'0 0.0
2017-Nov-14 23:00N 38°02' E 023°36'0 0.0
2017-Nov-14 22:30N 38°02' E 023°36'0 0.0
2017-Nov-14 22:00N 38°02' E 023°36'0 0.0
2017-Nov-14 21:30N 38°02' E 023°36'0 0.0
2017-Nov-14 21:00N 38°02' E 023°36'0 0.0
2017-Nov-14 20:30N 38°02' E 023°36'0 0.0
2017-Nov-14 20:00N 38°02' E 023°36'0 0.0
2017-Nov-14 19:30N 38°02' E 023°36'0 0.0
2017-Nov-14 19:00N 38°02' E 023°36'0 0.0
2017-Nov-14 18:30N 38°02' E 023°36'0 0.0
2017-Nov-14 18:00N 38°02' E 023°36'0 0.0
2017-Nov-14 17:30N 38°02' E 023°36'0 0.0
2017-Nov-14 17:00N 38°02' E 023°36'0 0.2
2017-Nov-14 16:30N 38°02' E 023°36'4 7.6
2017-Nov-14 16:00N 38°02' E 023°31'0 0.3
2017-Nov-14 15:30N 38°02' E 023°31'0 0.0
2017-Nov-14 15:00N 38°02' E 023°31'0 0.0
2017-Nov-14 14:30N 38°02' E 023°31'0 0.0
2017-Nov-14 14:00N 38°02' E 023°31'0 0.0
2017-Nov-14 13:30N 38°02' E 023°31'0 0.0
2017-Nov-14 13:00N 38°02' E 023°31'0 0.0
2017-Nov-14 12:30N 38°02' E 023°31'0 0.0
2017-Nov-14 12:00N 38°02' E 023°31'0 0.0
2017-Nov-14 11:30N 38°02' E 023°31'0 0.0
2017-Nov-14 11:00N 38°02' E 023°31'0 0.0
2017-Nov-14 10:30N 38°02' E 023°31'0 0.0
2017-Nov-14 10:00N 38°02' E 023°31'0 0.0
2017-Nov-14 09:30N 38°02' E 023°31'1 1.4
2017-Nov-14 09:00N 38°02' E 023°31'0 0.0
2017-Nov-14 08:30N 38°02' E 023°31'0 0.0
2017-Nov-14 08:00N 38°02' E 023°31'0 0.0
2017-Nov-14 07:30N 38°02' E 023°31'0 0.0
2017-Nov-14 07:00N 38°02' E 023°31'0 0.0
2017-Nov-14 06:30N 38°02' E 023°31'0 0.0
2017-Nov-14 06:00N 38°02' E 023°31'0 0.0
2017-Nov-14 05:30N 38°02' E 023°31'0 0.0
2017-Nov-14 05:01N 38°02' E 023°31'0 0.0
2017-Nov-14 04:30N 38°02' E 023°31'0 0.0
2017-Nov-14 04:00N 38°02' E 023°31'0 0.0
2017-Nov-14 03:30N 38°02' E 023°31'0 0.1
2017-Nov-14 03:00N 38°02' E 023°31'0 0.0
2017-Nov-14 02:30N 38°02' E 023°31'0 0.0
2017-Nov-14 02:00N 38°02' E 023°31'0 0.0
2017-Nov-14 01:30N 38°02' E 023°31'0 0.0
2017-Nov-14 01:00N 38°02' E 023°31'0 0.0
2017-Nov-14 00:30N 38°02' E 023°31'0 0.0
2017-Nov-14 00:00N 38°02' E 023°31'0 0.0
2017-Nov-13 23:30N 38°02' E 023°31'0 0.0
2017-Nov-13 23:00N 38°02' E 023°31'0 0.0
2017-Nov-13 22:30N 38°02' E 023°31'0 0.0
2017-Nov-13 22:00N 38°02' E 023°31'3 0.2
2017-Nov-13 02:00N 38°02' E 023°36'0 0.0
2017-Nov-13 01:30N 38°02' E 023°36'0 0.0
2017-Nov-13 01:00N 38°02' E 023°36'0 0.0
2017-Nov-13 00:30N 38°02' E 023°36'0 0.0
2017-Nov-13 00:00N 38°02' E 023°36'0 0.0
2017-Nov-12 23:30N 38°02' E 023°36'0 0.0
2017-Nov-12 23:00N 38°02' E 023°36'0 0.0
2017-Nov-12 22:30N 38°02' E 023°36'0 0.0
2017-Nov-12 22:00N 38°02' E 023°36'0 0.0
2017-Nov-12 21:30N 38°02' E 023°36'0 0.0
2017-Nov-12 21:00N 38°02' E 023°36'0 0.0
2017-Nov-12 20:30N 38°02' E 023°36'0 0.0
2017-Nov-12 20:00N 38°02' E 023°36'0 0.0
2017-Nov-12 19:30N 38°02' E 023°36'0 0.0
2017-Nov-12 19:00N 38°02' E 023°36'0 0.0
2017-Nov-12 18:30N 38°02' E 023°36'0 0.0
2017-Nov-12 18:00N 38°02' E 023°36'0 0.0
2017-Nov-12 17:30N 38°02' E 023°36'0 0.0
2017-Nov-12 17:00N 38°02' E 023°36'0 0.0
2017-Nov-12 16:30N 38°02' E 023°36'0 0.0
2017-Nov-12 16:00N 38°02' E 023°36'0 0.0
2017-Nov-12 15:30N 38°02' E 023°36'0 0.0
2017-Nov-12 15:00N 38°02' E 023°36'0 0.0
2017-Nov-12 14:31N 38°02' E 023°36'0 0.0
2017-Nov-12 14:00N 38°02' E 023°36'0 0.0
2017-Nov-12 13:30N 38°02' E 023°36'0 0.0
2017-Nov-12 13:00N 38°02' E 023°36'0 0.0
2017-Nov-12 12:30N 38°02' E 023°36'0 0.0
2017-Nov-12 12:00N 38°02' E 023°36'0 0.0
2017-Nov-12 11:30N 38°02' E 023°36'0 0.0
2017-Nov-12 11:00N 38°02' E 023°36'0 0.0
2017-Nov-12 10:30N 38°02' E 023°36'0 0.0
2017-Nov-12 10:00N 38°02' E 023°36'0 0.0
2017-Nov-12 09:31N 38°02' E 023°36'0 0.0
2017-Nov-12 09:00N 38°02' E 023°36'0 0.0
2017-Nov-12 08:30N 38°02' E 023°36'0 0.0
2017-Nov-12 08:00N 38°02' E 023°36'0 0.0
2017-Nov-12 07:30N 38°02' E 023°36'0 0.0
2017-Nov-12 07:00N 38°02' E 023°36'0 0.0
2017-Nov-12 06:30N 38°02' E 023°36'0 0.0
2017-Nov-12 06:00N 38°02' E 023°36'0 0.9
2017-Nov-12 05:30N 38°02' E 023°35'0 0.1
2017-Nov-12 05:00N 38°02' E 023°35'0 0.0
2017-Nov-12 04:30N 38°02' E 023°35'0 0.0
2017-Nov-12 04:00N 38°02' E 023°35'0 0.0
2017-Nov-12 03:30N 38°02' E 023°35'0 0.1
2017-Nov-12 03:00N 38°02' E 023°35'0 0.0
2017-Nov-12 02:30N 38°02' E 023°35'0 0.0
2017-Nov-12 02:00N 38°02' E 023°35'0 0.0
2017-Nov-12 01:30N 38°02' E 023°35'0 0.0
2017-Nov-12 01:00N 38°02' E 023°35'0 0.0
2017-Nov-12 00:30N 38°02' E 023°35'0 0.0
2017-Nov-12 00:00N 38°02' E 023°35'0 0.0
2017-Nov-11 23:30N 38°02' E 023°35'0 0.0
2017-Nov-11 23:00N 38°02' E 023°35'0 0.0
2017-Nov-11 22:30N 38°02' E 023°35'0 0.7
2017-Nov-11 22:00N 38°02' E 023°35'3 6.7
2017-Nov-11 21:30N 38°02' E 023°31'0 0.0
2017-Nov-11 21:00N 38°02' E 023°31'0 0.0
2017-Nov-11 20:30N 38°02' E 023°31'0 0.0
2017-Nov-11 20:00N 38°02' E 023°31'0 0.0
2017-Nov-11 19:30N 38°02' E 023°31'0 0.0
2017-Nov-11 19:00N 38°02' E 023°31'0 0.0
2017-Nov-11 18:30N 38°02' E 023°31'0 0.0
2017-Nov-11 18:00N 38°02' E 023°31'0 0.0
2017-Nov-11 17:30N 38°02' E 023°31'0 0.0
2017-Nov-11 17:00N 38°02' E 023°31'0 0.0
2017-Nov-11 16:30N 38°02' E 023°31'0 0.0
2017-Nov-11 16:00N 38°02' E 023°31'0 0.0
2017-Nov-11 15:30N 38°02' E 023°31'0 0.0
2017-Nov-11 15:00N 38°02' E 023°31'0 0.5
2017-Nov-11 14:30N 38°02' E 023°31'3 6.9
2017-Nov-11 14:00N 38°02' E 023°35'1 1.0
2017-Nov-11 13:30N 38°02' E 023°36'0 0.0
2017-Nov-11 13:00N 38°02' E 023°36'0 0.0
2017-Nov-11 12:30N 38°02' E 023°36'0 0.0
2017-Nov-11 12:00N 38°02' E 023°36'0 0.0
2017-Nov-11 11:30N 38°02' E 023°36'0 0.0
2017-Nov-11 11:00N 38°02' E 023°36'0 0.0
2017-Nov-11 10:30N 38°02' E 023°36'0 0.0
2017-Nov-11 10:00N 38°02' E 023°36'0 0.0
2017-Nov-11 09:30N 38°02' E 023°36'0 0.0
2017-Nov-11 09:00N 38°02' E 023°36'0 0.0
2017-Nov-11 08:30N 38°02' E 023°36'0 0.0
2017-Nov-11 08:00N 38°02' E 023°36'0 0.0
2017-Nov-11 07:30N 38°02' E 023°36'0 0.0
2017-Nov-11 07:00N 38°02' E 023°36'0 0.0
2017-Nov-11 06:30N 38°02' E 023°36'0 0.0
2017-Nov-11 06:00N 38°02' E 023°36'0 0.0
2017-Nov-11 05:30N 38°02' E 023°36'0 0.0
2017-Nov-11 05:00N 38°02' E 023°36'0 0.0
2017-Nov-11 04:30N 38°02' E 023°36'0 0.0
2017-Nov-11 04:00N 38°02' E 023°36'0 0.0
2017-Nov-11 03:30N 38°02' E 023°36'0 0.0
2017-Nov-11 03:00N 38°02' E 023°36'0 0.0
2017-Nov-11 02:30N 38°02' E 023°36'0 0.0
2017-Nov-11 02:00N 38°02' E 023°36'0 0.0
2017-Nov-11 01:30N 38°02' E 023°36'0 0.0
2017-Nov-11 01:00N 38°02' E 023°36'0 0.0
2017-Nov-11 00:30N 38°02' E 023°36'0 0.0
2017-Nov-11 00:00N 38°02' E 023°36'0 0.0
2017-Nov-10 23:30N 38°02' E 023°36'0 0.0
2017-Nov-10 23:00N 38°02' E 023°36'0 0.0
2017-Nov-10 22:30N 38°02' E 023°36'0 0.0
2017-Nov-10 22:00N 38°02' E 023°36'0 0.0
2017-Nov-10 21:30N 38°02' E 023°36'0 0.0
2017-Nov-10 21:00N 38°02' E 023°36'0 0.0
2017-Nov-10 20:30N 38°02' E 023°36'0 0.0
2017-Nov-10 20:00N 38°02' E 023°36'0 0.0
2017-Nov-10 19:30N 38°02' E 023°36'0 0.0
2017-Nov-10 19:00N 38°02' E 023°36'0 0.0
2017-Nov-10 18:30N 38°02' E 023°36'0 0.0
2017-Nov-10 18:00N 38°02' E 023°36'0 0.0
2017-Nov-10 17:30N 38°02' E 023°36'0 0.0
2017-Nov-10 17:00N 38°02' E 023°36'0 0.0
2017-Nov-10 16:30N 38°02' E 023°36'0 0.0
2017-Nov-10 16:00N 38°02' E 023°36'0 0.0
2017-Nov-10 15:30N 38°02' E 023°36'0 0.0
2017-Nov-10 15:00N 38°02' E 023°36'0 0.0
2017-Nov-10 14:30N 38°02' E 023°36'0 0.0
2017-Nov-10 14:00N 38°02' E 023°36'0 0.0
2017-Nov-10 13:30N 38°02' E 023°36'0 0.0
2017-Nov-10 13:00N 38°02' E 023°36'0 0.0
2017-Nov-10 12:30N 38°02' E 023°36'0 0.0
2017-Nov-10 12:00N 38°02' E 023°36'0 0.0
2017-Nov-10 11:30N 38°02' E 023°36'0 0.0
2017-Nov-10 11:00N 38°02' E 023°36'0 0.0
2017-Nov-10 10:30N 38°02' E 023°36'0 0.0
2017-Nov-10 10:00N 38°02' E 023°36'0 0.0
2017-Nov-10 09:30N 38°02' E 023°36'0 0.0
2017-Nov-10 09:00N 38°02' E 023°36'0 0.0
2017-Nov-10 08:30N 38°02' E 023°36'0 0.0
2017-Nov-10 08:00N 38°02' E 023°36'4 7.6
2017-Nov-10 07:30N 37°59' E 023°33'4 8.5
2017-Nov-10 07:00N 37°55' E 023°34'1 1.9
2017-Nov-10 06:30N 37°54' E 023°34'0 0.7
2017-Nov-10 06:00N 37°54' E 023°35'0 0.7
2017-Nov-10 05:30N 37°54' E 023°35'1 1.9
2017-Nov-10 05:00N 37°54' E 023°36'4 8.8
2017-Nov-10 04:30N 37°50' E 023°39'4 8.7
2017-Nov-10 04:00N 37°46' E 023°41'4 8.4
2017-Nov-10 03:30N 37°43' E 023°44'  

Dump ship's entire track history